• Join FlightAware (Why Join?)
  • Login
  • US Flag 
03:02AM EDT


 

Airport Tracker/Info


-or-


 

Live Flight TrackerFlight Track Log ✈ ASQ5869 ✈ 19-Apr-2013 ✈ KORD - KLIT

Flight Track Log - Related Links

Times and Time Zones

All times are in EDT time to prevent confusion due to time zone crossing. See the ASQ5869 flight status page for this flight to view local times or setup timezone preferences in your user account.

Time Position Orientation Groundspeed Altitude Reporting Facility
EDT Latitude Longitude Course Direction KTS MPH feet Rate Location/Type
11:37AM 41.9000 -87.9000 180° South 178 205 3,700  Level Chicago TRACON
11:38AM 41.8500 -87.9000 180° South 219 252 5,100 1,260 Climbing Chicago TRACON
11:39AM 41.8222 -87.9122 198° South 207 238 5,700 1,680 Climbing Chicago Center
11:40AM 41.7556 -87.9306 192° South 243 280 7,800 2,220 Climbing Chicago Center
11:41AM 41.6739 -87.9536 192° South 249 287 10,400 2,040 Climbing Chicago Center
11:42AM 41.6025 -87.9739 192° South 261 300 12,100 1,200 Climbing Chicago Center
11:43AM 41.4660 -88.2479 180° South  Level Estimated
11:43AM 41.5261 -87.9958 192° South 280 322 12,900  Level Chicago Center
11:44AM 41.4319 -88.0233 192° South 311 358 13,900 960 Climbing Chicago Center
11:45AM 41.3475 -88.0506 194° South 317 365 14,900 960 Climbing Chicago Center
11:46AM 41.2558 -88.0811 194° South 333 383 15,900 960 Climbing Chicago Center
11:47AM 41.1625 -88.1081 192° South 342 394 16,900 840 Climbing Chicago Center
11:48AM 41.0678 -88.1361 193° South 347 399 17,700 960 Climbing Chicago Center
11:49AM 40.9761 -88.1831 201° Southwest 354 407 18,900 1,020 Climbing Chicago Center
11:50AM 40.8683 -88.2594 208° Southwest 363 418 19,900 900 Climbing Chicago Center
11:51AM 40.7783 -88.3233 208° Southwest 367 422 20,800 900 Climbing Chicago Center
11:52AM 40.6881 -88.3864 208° Southwest 368 423 21,800 960 Climbing Chicago Center
11:53AM 40.5986 -88.4522 209° Southwest 369 425 22,800 960 Climbing Chicago Center
11:54AM 40.5075 -88.5128 207° Southwest 368 423 23,800 1,020 Climbing Chicago Center
11:55AM 40.4117 -88.5819 209° Southwest 366 421 25,000 1,260 Climbing Chicago Center
11:56AM 40.3244 -88.6406 207° Southwest 354 407 26,400 1,320 Climbing Chicago Center
11:57AM 40.2417 -88.6992 208° Southwest 341 392 27,800 1,260 Climbing Chicago Center
11:59AM 40.1628 -88.7522 207° Southwest 327 376 29,100 1,260 Climbing Chicago Center
12:00PM 40.0831 -88.8086 208° Southwest 318 366 30,400 1,260 Climbing Kansas City Center
12:01PM 40.0092 -88.8597 208° Southwest 306 352 31,800 1,200 Climbing Kansas City Center
12:02PM 39.9367 -88.9106 208° Southwest 299 344 32,900 1,080 Climbing Kansas City Center
12:03PM 39.8489 -88.9700 207° Southwest 296 341 34,100 960 Climbing Kansas City Center
12:04PM 39.7781 -89.0197 208° Southwest 291 335 34,900 600 Climbing Kansas City Center
12:05PM 39.7064 -89.0683 208° Southwest 290 334 35,400 480 Climbing Kansas City Center
12:06PM 39.6342 -89.1181 208° Southwest 292 336 35,900 240 Climbing Kansas City Center
12:07PM 39.5603 -89.1675 207° Southwest 296 341 36,000  Climbing Kansas City Center
12:08PM 39.4814 -89.2225 208° Southwest 312 359 36,000  Level Kansas City Center
12:09PM 39.3958 -89.2794 207° Southwest 325 374 36,000  Level Kansas City Center
12:10PM 39.3117 -89.3364 208° Southwest 337 388 36,000  Level Kansas City Center
12:11PM 39.2083 -89.4078 208° Southwest 348 400 36,000  Level Kansas City Center
12:12PM 39.1211 -89.4650 207° Southwest 351 404 36,000  Level Kansas City Center
12:13PM 39.0342 -89.5228 207° Southwest 351 404 36,000  Level Kansas City Center
12:15PM 38.9050 -89.6155 209° Southwest  Level FlightAware Approximate
12:15PM 38.8617 -89.6381 209° Southwest 349 402 36,000  Level Kansas City Center
12:16PM 38.7764 -89.6953 208° Southwest 347 399 36,000  Level Kansas City Center
12:17PM 38.6733 -89.7628 207° Southwest 345 397 36,000  Level Kansas City Center
12:18PM 38.5881 -89.8208 208° Southwest 345 397 36,000  Level Kansas City Center
12:19PM 38.5022 -89.8761 207° Southwest 345 397 36,000  Level Kansas City Center
12:20PM 38.4161 -89.9331 207° Southwest 345 397 36,000  Level Kansas City Center
12:21PM 38.3306 -89.9889 207° Southwest 345 397 36,000  Level Kansas City Center
12:22PM 38.2447 -90.0458 208° Southwest 345 397 36,000  Level Kansas City Center
12:23PM 38.1564 -90.1019 207° Southwest 349 402 36,000  Level Kansas City Center
12:24PM 38.0694 -90.1586 207° Southwest 350 403 36,000  Level Kansas City Center
12:25PM 37.9658 -90.2261 207° Southwest 350 403 36,000  Level Kansas City Center
12:26PM 37.8800 -90.2822 207° Southwest 348 400 36,000  Level Kansas City Center
12:27PM 37.7947 -90.3392 208° Southwest 347 399 36,000  Level Kansas City Center
12:28PM 37.7094 -90.3947 207° Southwest 346 398 36,000  Level Kansas City Center
12:30PM 37.6225 -90.4483 206° Southwest 347 399 36,000  Level Kansas City Center
12:31PM 37.5350 -90.5058 208° Southwest 352 405 36,000  Level Kansas City Center
12:32PM 37.4275 -90.5739 207° Southwest 359 413 36,000  Level Kansas City Center
12:32PM 37.3672 -90.6125 207° Southwest 352 405 36,000  Level Memphis Center
12:33PM 37.2753 -90.6750 208° Southwest 365 420 36,000  Level Memphis Center
12:34PM 37.1814 -90.7344 207° Southwest 376 433 36,000  Level Memphis Center
12:35PM 37.0833 -90.7936 206° Southwest 381 438 36,000  Level Memphis Center
12:36PM 36.9914 -90.8531 207° Southwest 388 447 36,000 -300 Level Memphis Center
12:37PM 36.8975 -90.9094 206° Southwest 388 447 35,500 -720 Descending Memphis Center
12:38PM 36.8075 -90.9683 208° Southwest 383 441 34,600 -960 Descending Memphis Center
12:39PM 36.7156 -91.0222 205° Southwest 377 434 33,600 -1,080 Descending Memphis Center
12:40PM 36.6319 -91.0783 208° Southwest 365 420 32,500 -1,140 Descending Memphis Center
12:41PM 36.5567 -91.1242 206° Southwest 350 403 31,400 -1,620 Descending Memphis Center
12:42PM 36.4561 -91.1825 205° Southwest 352 405 29,300 -2,040 Descending Memphis Center
12:43PM 36.3681 -91.2383 207° Southwest 357 411 27,400 -1,800 Descending Memphis Center
12:44PM 36.2761 -91.2942 206° Southwest 363 418 25,800 -1,500 Descending Memphis Center
12:45PM 36.1861 -91.3494 206° Southwest 363 418 24,400 -900 Descending Memphis Center
12:46PM 36.0939 -91.4025 205° Southwest 363 418 24,000 -240 Descending Memphis Center
12:47PM 36.0017 -91.4603 207° Southwest 363 418 24,000  Level Memphis Center
12:48PM 35.9219 -91.5156 209° Southwest 368 423 24,000 -960 Level Memphis Center
12:49PM 35.8275 -91.5681 204° Southwest 368 423 22,100 -2,100 Descending Memphis Center
12:50PM 35.7372 -91.6231 206° Southwest 368 423 19,800 -2,160 Descending Memphis Center
12:51PM 35.6511 -91.6753 206° Southwest 363 418 17,800 -1,980 Descending Memphis Center
12:53PM 35.5253 -91.7500 206° Southwest 347 399 15,200 -1,920 Descending Memphis Center
12:53PM 35.4644 -91.7897 208° Southwest 345 397 13,900 -1,800 Descending Memphis Center
12:54PM 35.3844 -91.8367 206° Southwest 324 373 12,300 -1,680 Descending Memphis Center
12:55PM 35.3089 -91.8811 206° Southwest 310 357 10,700 -1,440 Descending Memphis Center
12:56PM 35.2394 -91.9231 206° Southwest 268 308 9,400 -1,320 Descending Memphis Center
12:57PM 35.1786 -91.9600 206° Southwest 290 334 8,100 -1,440 Descending Memphis Center
12:58PM 35.1033 -91.9739 189° South 277 319 6,600 -1,380 Descending Memphis Center
12:59PM 35.0303 -91.9853 187° South 267 307 5,400 -1,020 Descending Memphis Center
01:00PM 34.9611 -91.9967 188° South 260 299 4,600 -900 Descending Memphis Center
01:01PM 34.8964 -92.0106 190° South 255 293 3,700 -780 Descending Memphis Center
01:02PM 34.8372 -92.0575 213° Southwest 214 246 3,000 -600 Descending Memphis Center
01:03PM 34.8075 -92.1047 233° Southwest 220 253 2,500 -720 Descending Memphis Center
01:04PM 34.7819 -92.1422 230° Southwest 190 219 1,700 -600 Descending Memphis Center
01:05PM 34.7372 -92.1919 222° Southwest 183 211 1,300 -420 Descending Memphis Center